KAZO/AZO METAR and TAF weather

Enter ICAO airport designator
Station Type Date Time Source
KAZO METAR 2019/12/08 13:53 UTC NOAA

KAZO 081353Z 18011KT 10SM BKN015 OVC020 02/M02 A3001 RMK AO2 SLP172 T00171022


Station Type Date Time Source
KAZO Decoded METAR 2019/12/08 13:53 UTC NOAA

KALAMAZOO/BATTLE CREEK AIRPORT, MI, United States (KAZO) 42-14N 085-33W 272M
Dec 08, 2019 - 08:53 AM EST / 2019.12.08 1353 UTC
Wind: from the S (180 degrees) at 13 MPH (11 KT):0
Visibility: 10 mile(s):0
Sky conditions: overcast
Temperature: 35.1 F (1.7 C)
Dew Point: 28.0 F (-2.2 C)
Relative Humidity: 75%
Pressure (altimeter): 30.01 in. Hg (1016 hPa)
ob: KAZO 081353Z 18011KT 10SM BKN015 OVC020 02/M02 A3001 RMK AO2 SLP172 T00171022
cycle: 14

Station Type Date Time Source
KAZO TAF 2019/12/08 12:27 UTC NOAA

TAF KAZO 081125Z 0812/0912 19010KT P6SM BKN080
FM081300 18012KT P6SM BKN015 WS020/21040KT
FM081500 20014G22KT P6SM BKN015
FM081800 20013KT P6SM OVC035
FM082300 20009KT P6SM OVC025
FM090300 19006KT 4SM -RA OVC008

Example: see airport list